Time;durP1;ratioP1;P1;durP2;ratioP2;P2;SDS_P1;SDS_P2;PMS_P1;PMS_P2;Temp;Humidity;BMP_temperature;BMP_pressure;BME280_temperature;BME280_humidity;BME280_pressure;Samples;Min_cycle;Max_cycle;Signal;HPM_P1;HPM_P2
2022/05/26 00:01:00;;;;;;;15.90;10.30;;;12.70;99.90;;;;;;4989258;28;20046;-81
2022/05/26 00:03:26;;;;;;;7.93;5.55;;;12.70;99.90;;;;;;4989350;28;20066;-79
2022/05/26 00:05:51;;;;;;;12.60;6.28;;;12.60;99.90;;;;;;4967502;28;20507;-80
2022/05/26 00:08:18;;;;;;;9.80;5.07;;;12.60;99.90;;;;;;4956073;28;20133;-79
2022/05/26 00:10:43;;;;;;;9.77;5.30;;;12.60;99.90;;;;;;4971566;28;20040;-80
2022/05/26 00:13:09;;;;;;;10.35;4.80;;;12.60;99.90;;;;;;4943289;28;20411;-78
2022/05/26 00:15:35;;;;;;;7.15;4.68;;;12.60;99.90;;;;;;4955112;28;20042;-77
2022/05/26 00:18:01;;;;;;;6.45;4.50;;;12.50;99.90;;;;;;4989408;28;20100;-78
2022/05/26 00:20:26;;;;;;;6.63;4.13;;;12.40;99.90;;;;;;4939896;28;20042;-77
2022/05/26 00:22:52;;;;;;;6.22;3.78;;;12.40;99.90;;;;;;4958011;28;20133;-77
2022/05/26 00:25:18;;;;;;;6.28;4.22;;;12.30;99.90;;;;;;4966679;28;20030;-77
2022/05/26 00:27:44;;;;;;;8.63;4.43;;;12.30;99.90;;;;;;4983818;28;20042;-77
2022/05/26 00:30:10;;;;;;;15.27;5.72;;;12.30;99.90;;;;;;4971214;28;20034;-77
2022/05/26 00:32:36;;;;;;;10.73;6.40;;;12.20;99.90;;;;;;4969967;28;20824;-76
2022/05/26 00:35:02;;;;;;;12.23;7.85;;;12.20;99.90;;;;;;4986535;28;20053;-75
2022/05/26 00:37:27;;;;;;;14.48;8.00;;;12.20;99.90;;;;;;4955732;28;20041;-75
2022/05/26 00:39:53;;;;;;;14.35;8.10;;;12.20;99.90;;;;;;4969356;28;20040;-75
2022/05/26 00:42:19;;;;;;;18.77;8.52;;;12.20;99.90;;;;;;4987386;28;20084;-74
2022/05/26 00:44:44;;;;;;;13.77;8.75;;;12.30;99.90;;;;;;4969743;28;20048;-74
2022/05/26 00:47:23;;;;;;;17.80;10.18;;;12.30;99.90;;;;;;4987791;28;20462;-74
2022/05/26 00:49:54;;;;;;;27.05;12.18;;;12.40;99.90;;;;;;4987436;28;20049;-74
2022/05/26 00:52:27;;;;;;;23.67;13.02;;;12.40;99.90;;;;;;4984956;28;20046;-75
2022/05/26 00:54:54;;;;;;;27.77;14.18;;;12.40;99.90;;;;;;4973088;28;20462;-74
2022/05/26 00:57:41;;;;;;;30.17;14.52;;;12.40;99.90;;;;;;4973434;28;20160;-74
2022/05/26 01:00:12;;;;;;;32.45;15.80;;;12.40;99.90;;;;;;4971311;28;20410;-74
2022/05/26 01:02:47;;;;;;;35.60;16.92;;;12.50;99.90;;;;;;4972742;28;20051;-75
2022/05/26 01:05:25;;;;;;;35.30;17.85;;;12.50;99.90;;;;;;4969521;28;20030;-75
2022/05/26 01:07:51;;;;;;;35.53;17.58;;;12.50;99.90;;;;;;4987282;28;20096;-74
2022/05/26 01:10:17;;;;;;;37.83;17.67;;;12.50;99.90;;;;;;4970747;28;20034;-75
2022/05/26 01:12:43;;;;;;;41.03;19.05;;;12.60;99.90;;;;;;4958639;28;20044;-75
2022/05/26 01:15:13;;;;;;;34.70;17.10;;;12.60;99.90;;;;;;4969268;28;20045;-75
2022/05/26 01:17:51;;;;;;;36.03;17.75;;;12.60;99.90;;;;;;4987029;28;20038;-75
2022/05/26 01:20:31;;;;;;;36.20;16.75;;;12.60;99.90;;;;;;4983888;28;20044;-75
2022/05/26 01:23:19;;;;;;;35.88;17.48;;;12.60;99.90;;;;;;4984642;28;20046;-74
2022/05/26 01:26:09;;;;;;;34.63;17.98;;;12.70;99.90;;;;;;4985535;28;20549;-74
2022/05/26 01:28:53;;;;;;;36.95;17.75;;;12.70;99.90;;;;;;4987929;28;20039;-75
2022/05/26 01:31:57;;;;;;;39.35;18.75;;;12.70;99.90;;;;;;4970696;28;20136;-75
2022/05/26 01:34:42;;;;;;;39.50;17.75;;;12.70;99.90;;;;;;4968840;28;20101;-74
2022/05/26 01:37:26;;;;;;;38.75;19.40;;;12.70;99.90;;;;;;4986354;28;20053;-75
2022/05/26 01:39:57;;;;;;;46.63;19.23;;;12.80;99.90;;;;;;4986146;28;20288;-75
2022/05/26 01:42:47;;;;;;;44.27;19.03;;;12.70;99.90;;;;;;4985035;28;20117;-75
2022/05/26 01:45:32;;;;;;;46.60;20.77;;;12.80;99.90;;;;;;4971315;28;20100;-74
2022/05/26 01:48:14;;;;;;;44.80;20.33;;;12.80;99.90;;;;;;4969195;28;20033;-74
2022/05/26 01:50:46;;;;;;;34.33;19.80;;;12.80;99.90;;;;;;4985012;28;20049;-75
2022/05/26 01:53:47;;;;;;;42.97;22.13;;;12.80;99.90;;;;;;4969073;28;20053;-75
2022/05/26 01:56:19;;;;;;;51.85;20.45;;;12.80;99.90;;;;;;4975034;28;20046;-75
2022/05/26 01:59:06;;;;;;;48.92;19.15;;;12.80;99.90;;;;;;4983811;28;20483;-74
2022/05/26 02:01:39;;;;;;;42.53;20.70;;;12.80;99.90;;;;;;4984416;28;20491;-74
2022/05/26 02:04:13;;;;;;;45.88;19.80;;;12.80;99.90;;;;;;4969810;28;20216;-74
2022/05/26 02:06:48;;;;;;;54.92;20.95;;;12.80;99.90;;;;;;5000774;28;20107;-74
2022/05/26 02:09:18;;;;;;;51.17;21.27;;;12.80;99.90;;;;;;4987499;28;20045;-74
2022/05/26 02:12:06;;;;;;;46.08;19.48;;;12.80;99.90;;;;;;4985585;28;20046;-74
2022/05/26 02:14:55;;;;;;;42.78;20.35;;;12.80;99.90;;;;;;4985095;28;20038;-74
2022/05/26 02:17:31;;;;;;;45.25;19.52;;;12.80;99.90;;;;;;4985009;28;20053;-74
2022/05/26 02:20:05;;;;;;;56.50;21.63;;;12.80;99.90;;;;;;4986129;28;20373;-74
2022/05/26 02:22:41;;;;;;;43.33;21.67;;;12.80;99.90;;;;;;4971054;28;20038;-74
2022/05/26 02:25:14;;;;;;;50.58;21.20;;;12.80;99.90;;;;;;4970983;28;20050;-74
2022/05/26 02:27:39;;;;;;;;;;;12.80;99.90;;;;;;4980504;28;20599;-74
2022/05/26 02:30:07;;;;;;;55.15;21.90;;;12.80;99.90;;;;;;4970483;28;20363;-74
2022/05/26 02:32:37;;;;;;;57.55;23.02;;;12.90;99.90;;;;;;4971536;28;20058;-74
2022/05/26 02:35:09;;;;;;;65.63;23.63;;;12.80;99.90;;;;;;4985248;28;20074;-74
2022/05/26 02:37:37;;;;;;;51.55;21.95;;;12.80;99.90;;;;;;4972947;28;20561;-75
2022/05/26 02:40:05;;;;;;;47.85;21.20;;;12.80;99.90;;;;;;4969269;28;20425;-74
2022/05/26 02:42:31;;;;;;;51.15;21.27;;;12.90;99.90;;;;;;4968998;28;20039;-74
2022/05/26 02:44:57;;;;;;;58.75;22.52;;;12.80;99.90;;;;;;4967622;28;20507;-74
2022/05/26 02:48:01;;;;;;;48.95;19.45;;;12.80;99.90;;;;;;4987642;28;20037;-74
2022/05/26 02:50:45;;;;;;;53.67;20.48;;;12.80;99.90;;;;;;4910013;28;20046;-74
2022/05/26 02:53:39;;;;;;;54.67;21.23;;;12.80;99.90;;;;;;4989306;28;20042;-74
2022/05/26 02:56:08;;;;;;;54.53;21.63;;;12.80;99.90;;;;;;4968494;28;20679;-74
2022/05/26 02:59:14;;;;;;;55.92;22.23;;;12.80;99.90;;;;;;4984955;28;20034;-74
2022/05/26 03:01:57;;;;;;;47.40;19.90;;;12.80;99.90;;;;;;4972713;28;20049;-74
2022/05/26 03:04:30;;;;;;;;;;;12.80;99.90;;;;;;4990945;28;20049;-74
2022/05/26 03:07:05;;;;;;;48.80;20.38;;;12.80;99.90;;;;;;4987772;28;19917;-74
2022/05/26 03:09:35;;;;;;;48.83;20.10;;;12.80;99.90;;;;;;4973111;28;20140;-74
2022/05/26 03:12:00;;;;;;;56.25;23.05;;;12.80;99.90;;;;;;4974058;28;20103;-74
2022/05/26 03:14:26;;;;;;;55.85;21.67;;;12.80;99.90;;;;;;4988044;28;20045;-74
2022/05/26 03:16:53;;;;;;;51.70;20.70;;;12.80;99.90;;;;;;4989576;28;20037;-74
2022/05/26 03:19:20;;;;;;;65.53;21.50;;;12.80;99.90;;;;;;4989287;28;20113;-74
2022/05/26 03:21:46;;;;;;;47.97;20.88;;;12.60;99.90;;;;;;4987950;28;20033;-74
2022/05/26 03:24:12;;;;;;;51.75;20.33;;;12.80;99.90;;;;;;4972540;28;20093;-74
2022/05/26 03:26:38;;;;;;;49.47;20.00;;;12.80;99.90;;;;;;4973170;28;20049;-74
2022/05/26 03:29:05;;;;;;;47.08;19.58;;;12.80;99.90;;;;;;4989245;28;20407;-74
2022/05/26 03:31:32;;;;;;;49.97;21.33;;;12.80;99.90;;;;;;4972555;28;20058;-74
2022/05/26 03:42:24;;;;;;;47.40;18.67;;;12.90;99.90;;;;;;4960954;28;20530;-74
2022/05/26 03:44:50;;;;;;;44.83;19.27;;;12.90;99.90;;;;;;4987201;28;20112;-74
2022/05/26 03:47:16;;;;;;;53.70;19.77;;;12.90;99.90;;;;;;4974082;28;20077;-83
2022/05/26 03:49:41;;;;;;;51.60;18.48;;;12.90;99.90;;;;;;4950888;28;20076;-83
2022/05/26 03:52:07;;;;;;;45.75;19.25;;;12.90;99.90;;;;;;4987605;28;20046;-83
2022/05/26 03:54:33;;;;;;;46.08;18.67;;;12.90;99.90;;;;;;4968957;28;20444;-83
2022/05/26 03:56:59;;;;;;;49.55;18.70;;;12.90;99.90;;;;;;4988627;28;20127;-83
2022/05/26 03:59:25;;;;;;;58.08;18.33;;;12.80;99.90;;;;;;4985953;28;20069;-83
2022/05/26 04:01:51;;;;;;;48.55;17.10;;;12.90;99.90;;;;;;4973923;28;20061;-83
2022/05/26 04:04:17;;;;;;;45.47;16.15;;;12.90;99.90;;;;;;4969676;28;20076;-82
2022/05/26 04:06:43;;;;;;;43.38;17.35;;;12.90;99.90;;;;;;4966812;28;20062;-83
2022/05/26 04:09:09;;;;;;;46.45;18.25;;;12.90;99.90;;;;;;5005498;28;20123;-82
2022/05/26 04:11:35;;;;;;;47.25;17.30;;;12.90;99.90;;;;;;4955394;28;20484;-83
2022/05/26 04:14:01;;;;;;;48.17;17.05;;;12.90;99.90;;;;;;4963878;28;20088;-82
2022/05/26 04:16:27;;;;;;;52.65;17.30;;;12.90;99.90;;;;;;4986990;28;20058;-82
2022/05/26 04:18:53;;;;;;;39.72;15.57;;;12.90;99.90;;;;;;4966075;28;20629;-83
2022/05/26 04:21:19;;;;;;;42.53;16.77;;;12.90;99.90;;;;;;4986843;28;20065;-83
2022/05/26 04:23:45;;;;;;;42.90;16.10;;;12.90;99.90;;;;;;4956981;28;20022;-82
2022/05/26 04:26:11;;;;;;;44.15;15.20;;;12.90;99.90;;;;;;4988885;28;20041;-82
2022/05/26 04:28:38;;;;;;;44.17;16.25;;;12.90;99.90;;;;;;4989608;28;20046;-82
2022/05/26 04:31:04;;;;;;;42.85;16.15;;;12.90;99.90;;;;;;4941799;28;20534;-82
2022/05/26 04:33:31;;;;;;;44.25;14.25;;;12.90;99.90;;;;;;4970698;28;20092;-83
2022/05/26 04:35:57;;;;;;;45.50;14.63;;;12.90;99.90;;;;;;4989315;28;20037;-82
2022/05/26 04:38:23;;;;;;;37.20;13.02;;;12.90;99.90;;;;;;4971915;28;20034;-81
2022/05/26 04:40:57;;;;;;;42.78;12.30;;;12.90;99.90;;;;;;4988082;28;20034;-82
2022/05/26 04:43:22;;;;;;;41.95;13.00;;;12.90;99.90;;;;;;4987753;28;20038;-82
2022/05/26 04:45:48;;;;;;;44.25;12.40;;;12.90;99.90;;;;;;4970488;28;20137;-82
2022/05/26 04:48:16;;;;;;;45.08;13.20;;;12.90;99.90;;;;;;4970718;28;20046;-82
2022/05/26 04:50:42;;;;;;;41.67;11.73;;;12.90;99.90;;;;;;4970183;28;20053;-82
2022/05/26 04:53:08;;;;;;;40.42;12.73;;;13.00;99.90;;;;;;4958017;28;20037;-82
2022/05/26 04:55:34;;;;;;;35.35;12.57;;;13.00;99.90;;;;;;4971533;28;20093;-81
2022/05/26 04:57:59;;;;;;;38.30;13.05;;;13.00;99.90;;;;;;4972005;28;20101;-82
2022/05/26 05:00:25;;;;;;;29.65;11.15;;;13.00;99.90;;;;;;4963629;28;20042;-82
2022/05/26 05:02:53;;;;;;;46.42;10.90;;;13.00;99.90;;;;;;4954338;28;20116;-82
2022/05/26 05:05:19;;;;;;;24.05;9.18;;;13.00;99.90;;;;;;4970861;28;20492;-82
2022/05/26 05:07:45;;;;;;;25.77;9.48;;;13.00;99.90;;;;;;4972735;28;20037;-82
2022/05/26 05:10:10;;;;;;;28.40;8.20;;;13.00;99.90;;;;;;4955328;28;20483;-82
2022/05/26 05:12:36;;;;;;;29.17;6.97;;;12.90;99.90;;;;;;4939459;28;20270;-82
2022/05/26 05:15:06;;;;;;;26.73;7.50;;;13.00;99.90;;;;;;4990422;28;20103;-82
2022/05/26 05:17:32;;;;;;;25.80;6.15;;;13.00;99.90;;;;;;4988257;28;20034;-81
2022/05/26 05:19:58;;;;;;;19.40;6.85;;;13.00;99.90;;;;;;4987186;28;20044;-82
2022/05/26 05:22:26;;;;;;;20.67;5.72;;;13.00;99.90;;;;;;4954291;28;20132;-81
2022/05/26 05:25:16;;;;;;;27.98;5.55;;;12.90;99.90;;;;;;4985480;28;20030;-81
2022/05/26 05:27:51;;;;;;;20.02;5.18;;;13.00;99.90;;;;;;4971744;28;20136;-81
2022/05/26 05:30:24;;;;;;;16.38;5.03;;;13.00;99.90;;;;;;4981662;28;20492;-81
2022/05/26 05:32:56;;;;;;;23.42;5.88;;;13.00;99.90;;;;;;4984319;28;20128;-81
2022/05/26 05:35:26;;;;;;;15.85;4.10;;;13.00;99.90;;;;;;4983321;28;20038;-81
2022/05/26 05:37:52;;;;;;;10.93;3.65;;;13.00;99.90;;;;;;4987604;28;20319;-81
2022/05/26 05:40:18;;;;;;;15.68;3.78;;;13.00;99.90;;;;;;4955026;28;20033;-81
2022/05/26 05:42:44;;;;;;;11.45;3.90;;;13.00;99.90;;;;;;4971445;28;20407;-82
2022/05/26 05:45:10;;;;;;;13.57;3.55;;;12.90;99.90;;;;;;4970481;28;20041;-81
2022/05/26 05:47:36;;;;;;;10.13;3.90;;;12.90;99.90;;;;;;4971426;28;20124;-81
2022/05/26 05:50:03;;;;;;;13.13;4.07;;;12.90;99.90;;;;;;4956472;28;20143;-80
2022/05/26 05:52:28;;;;;;;14.30;4.10;;;12.90;99.90;;;;;;5002505;28;20041;-80
2022/05/26 05:54:58;;;;;;;14.30;3.55;;;12.90;99.90;;;;;;4955518;28;20045;-79
2022/05/26 05:57:24;;;;;;;9.10;3.60;;;13.00;99.90;;;;;;4988115;28;20419;-79
2022/05/26 05:59:49;;;;;;;12.57;4.05;;;13.00;99.90;;;;;;4972253;28;20103;-80
2022/05/26 06:02:15;;;;;;;10.80;3.40;;;13.00;99.90;;;;;;4984913;28;20038;-80
2022/05/26 06:04:42;;;;;;;8.48;3.58;;;12.80;99.90;;;;;;4970058;28;20034;-81
2022/05/26 06:07:21;;;;;;;12.82;3.97;;;13.10;99.90;;;;;;4987287;28;20407;-80
2022/05/26 06:09:47;;;;;;;13.48;4.15;;;13.10;99.90;;;;;;4968510;28;20044;-80
2022/05/26 06:12:14;;;;;;;7.43;3.20;;;13.10;99.90;;;;;;4967889;28;20042;-79
2022/05/26 06:14:44;;;;;;;11.68;3.08;;;13.20;99.90;;;;;;4986814;28;20125;-80
2022/05/26 06:17:13;;;;;;;11.82;2.90;;;13.30;99.90;;;;;;4985749;28;20073;-80
2022/05/26 06:19:42;;;;;;;9.20;2.38;;;13.30;99.90;;;;;;4972863;28;20064;-79
2022/05/26 06:22:13;;;;;;;7.50;2.72;;;13.30;99.90;;;;;;4988497;28;20045;-81
2022/05/26 06:24:40;;;;;;;5.30;2.63;;;13.30;99.90;;;;;;4975691;28;20463;-80
2022/05/26 06:29:52;;;;;;;8.98;3.05;;;13.50;99.90;;;;;;4990856;28;20050;-80
2022/05/26 06:37:50;;;;;;;4.57;1.80;;;13.50;99.90;;;;;;4989993;28;20054;-80
2022/05/26 06:40:16;;;;;;;4.72;2.20;;;13.60;99.90;;;;;;4990058;28;20093;-81
2022/05/26 06:42:44;;;;;;;5.32;2.13;;;13.60;99.90;;;;;;4972167;28;20462;-80
2022/05/26 06:45:11;;;;;;;11.02;1.50;;;13.60;99.90;;;;;;4975333;28;20049;-80
2022/05/26 06:47:37;;;;;;;7.32;2.08;;;13.70;99.90;;;;;;4960846;28;20125;-79
2022/05/26 06:50:03;;;;;;;6.43;1.80;;;13.70;99.90;;;;;;4962119;28;20474;-80
2022/05/26 06:52:29;;;;;;;10.30;1.95;;;13.80;99.90;;;;;;4974027;28;20034;-78
2022/05/26 06:54:56;;;;;;;6.32;2.30;;;13.90;99.90;;;;;;4991381;28;20038;-79
2022/05/26 06:57:22;;;;;;;3.97;1.80;;;14.00;99.90;;;;;;4968963;28;20050;-80
2022/05/26 06:59:48;;;;;;;4.35;1.70;;;14.10;99.90;;;;;;4965791;28;20052;-80
2022/05/26 07:02:14;;;;;;;6.60;1.70;;;14.10;99.90;;;;;;4978838;28;20038;-80
2022/05/26 07:04:42;;;;;;;7.20;1.70;;;14.20;99.90;;;;;;4960091;28;20488;-79
2022/05/26 07:07:11;;;;;;;4.30;1.63;;;14.30;99.90;;;;;;4977886;28;20066;-80
2022/05/26 07:09:36;;;;;;;6.75;1.85;;;14.30;99.90;;;;;;4962112;28;20061;-79
2022/05/26 07:12:02;;;;;;;6.03;1.90;;;14.40;99.90;;;;;;4989150;28;20077;-79
2022/05/26 07:14:28;;;;;;;5.50;1.65;;;14.40;99.90;;;;;;4970481;28;20115;-79
2022/05/26 07:16:55;;;;;;;8.55;1.67;;;14.50;99.90;;;;;;4982802;28;20508;-79
2022/05/26 07:19:20;;;;;;;3.85;1.50;;;14.60;99.90;;;;;;4973120;28;20034;-78
2022/05/26 07:21:48;;;;;;;3.40;1.30;;;14.70;99.90;;;;;;4982324;28;20908;-79
2022/05/26 07:24:19;;;;;;;5.03;1.48;;;14.80;99.90;;;;;;4985625;28;20048;-78
2022/05/26 07:26:47;;;;;;;2.70;1.27;;;15.00;99.90;;;;;;4987127;28;20091;-78
2022/05/26 07:29:15;;;;;;;7.18;1.45;;;15.10;99.90;;;;;;4985946;28;20038;-78
2022/05/26 07:31:41;;;;;;;8.02;2.05;;;15.10;99.90;;;;;;4983724;28;20061;-79
2022/05/26 07:34:07;;;;;;;5.00;1.30;;;15.00;99.90;;;;;;4983300;28;20052;-80
2022/05/26 07:42:14;;;;;;;5.75;1.40;;;15.00;99.90;;;;;;4994615;28;20058;-79
2022/05/26 07:44:43;;;;;;;4.97;1.73;;;15.00;99.90;;;;;;4977595;28;20439;-79
2022/05/26 07:47:10;;;;;;;3.88;1.50;;;15.00;99.90;;;;;;4973812;28;20125;-78
2022/05/26 07:49:41;;;;;;;4.13;1.42;;;15.00;99.90;;;;;;4987053;28;20045;-79
2022/05/26 07:52:09;;;;;;;2.47;1.45;;;15.00;99.90;;;;;;4974720;28;20042;-79
2022/05/26 07:54:35;;;;;;;3.20;1.40;;;15.10;99.90;;;;;;4952726;28;20503;-79
2022/05/26 07:57:01;;;;;;;4.25;1.48;;;15.10;99.90;;;;;;4986324;28;20073;-79
2022/05/26 07:59:28;;;;;;;3.03;1.40;;;15.10;99.90;;;;;;4982355;28;20038;-80
2022/05/26 08:01:54;;;;;;;5.38;1.17;;;15.30;99.90;;;;;;4982140;28;20042;-78
2022/05/26 08:04:20;;;;;;;3.92;1.10;;;15.40;99.90;;;;;;4992408;28;20187;-80
2022/05/26 08:06:47;;;;;;;4.68;1.48;;;15.40;99.90;;;;;;4998264;28;20038;-79
2022/05/26 08:09:15;;;;;;;5.90;1.30;;;15.60;99.90;;;;;;4974585;28;20061;-78
2022/05/26 08:11:41;;;;;;;4.28;1.65;;;15.70;99.90;;;;;;4971537;28;20046;-78
2022/05/26 08:14:07;;;;;;;3.00;1.55;;;15.80;99.90;;;;;;4993598;28;20049;-78
2022/05/26 08:16:34;;;;;;;3.65;1.30;;;15.90;99.90;;;;;;4990272;28;20061;-77
2022/05/26 08:19:00;;;;;;;5.95;1.77;;;16.00;99.90;;;;;;4973083;28;20040;-78
2022/05/26 08:21:25;;;;;;;6.97;1.60;;;16.00;99.90;;;;;;4988321;28;20358;-78
2022/05/26 08:23:53;;;;;;;4.45;1.38;;;16.20;99.90;;;;;;4966180;28;20104;-78
2022/05/26 08:26:19;;;;;;;7.07;1.60;;;16.20;99.90;;;;;;4973172;28;20458;-78
2022/05/26 08:28:45;;;;;;;2.55;1.40;;;16.40;99.90;;;;;;4972029;28;20497;-78
2022/05/26 08:31:13;;;;;;;6.15;1.52;;;16.30;99.90;;;;;;4988114;28;20676;-78
2022/05/26 08:33:39;;;;;;;5.22;1.50;;;16.30;99.90;;;;;;5003484;28;21365;-79
2022/05/26 08:36:14;;;;;;;7.30;1.52;;;16.20;99.90;;;;;;4953778;28;20042;-78
2022/05/26 08:38:40;;;;;;;6.70;1.40;;;16.20;99.90;;;;;;4969780;28;20506;-80
2022/05/26 08:41:10;;;;;;;4.03;1.27;;;16.10;99.90;;;;;;4974849;28;20139;-79
2022/05/26 08:43:43;;;;;;;4.07;1.38;;;16.00;99.90;;;;;;4977110;28;20041;-79
2022/05/26 08:46:13;;;;;;;3.13;0.95;;;16.00;99.90;;;;;;4974625;28;20147;-78
2022/05/26 08:49:10;;;;;;;4.38;1.27;;;16.10;99.90;;;;;;4975945;28;20122;-78
2022/05/26 08:51:49;;;;;;;2.95;1.42;;;16.20;99.90;;;;;;4976044;28;20049;-78
2022/05/26 08:54:34;;;;;;;3.42;1.05;;;16.30;99.90;;;;;;4973989;28;20041;-78
2022/05/26 08:57:01;;;;;;;3.17;1.20;;;16.50;99.90;;;;;;4979190;28;20080;-78
2022/05/26 08:59:36;;;;;;;3.67;1.20;;;16.70;99.90;;;;;;4983011;28;20432;-77
2022/05/26 09:02:03;;;;;;;3.58;1.05;;;16.90;99.90;;;;;;4988537;28;20050;-78
2022/05/26 09:04:29;;;;;;;7.15;1.20;;;17.10;99.90;;;;;;4984334;28;20030;-78
2022/05/26 09:15:18;;;;;;;2.70;1.00;;;17.20;99.90;;;;;;4983484;28;20077;-77
2022/05/26 09:17:43;;;;;;;5.85;1.23;;;16.90;99.90;;;;;;4960130;28;20180;-81
2022/05/26 09:20:35;;;;;;;1.27;0.82;;;17.00;99.90;;;;;;4984181;28;20069;-79
2022/05/26 09:23:33;;;;;;;2.38;0.80;;;17.10;99.90;;;;;;4978519;28;21372;-79
2022/05/26 09:26:02;;;;;;;2.40;1.10;;;17.10;99.90;;;;;;4926183;28;20046;-77
2022/05/26 09:28:37;;;;;;;10.65;2.78;;;17.10;99.90;;;;;;4963764;28;20032;-79
2022/05/26 09:31:29;;;;;;;3.83;1.08;;;17.00;99.90;;;;;;4979779;28;20101;-80
2022/05/26 09:34:14;;;;;;;2.53;0.93;;;17.10;99.90;;;;;;4979380;28;20050;-80
2022/05/26 09:36:53;;;;;;;3.42;1.33;;;17.00;99.90;;;;;;4978243;28;20088;-78
2022/05/26 09:39:25;;;;;;;2.30;1.13;;;16.90;99.90;;;;;;4963001;28;20121;-78
2022/05/26 09:41:54;;;;;;;1.77;0.90;;;16.70;99.90;;;;;;4976752;28;20045;-76
2022/05/26 09:44:54;;;;;;;3.20;0.95;;;16.60;99.90;;;;;;4979575;28;21018;-75
2022/05/26 09:47:19;;;;;;;3.88;1.08;;;16.50;99.90;;;;;;4963615;28;20462;-76
2022/05/26 09:49:50;;;;;;;3.17;1.25;;;16.50;99.90;;;;;;4979750;28;20034;-77
2022/05/26 09:52:19;;;;;;;4.15;1.20;;;16.50;99.90;;;;;;4979581;28;20069;-77
2022/05/26 09:54:47;;;;;;;3.70;1.20;;;16.50;99.90;;;;;;4980143;28;20092;-78
2022/05/26 09:57:15;;;;;;;4.25;1.20;;;16.60;99.90;;;;;;4982938;28;20049;-76
2022/05/26 09:59:42;;;;;;;4.05;1.10;;;17.00;99.90;;;;;;4983040;28;20030;-77
2022/05/26 10:02:07;;;;;;;3.97;1.33;;;17.40;99.90;;;;;;4983785;28;20064;-77
2022/05/26 10:04:44;;;;;;;3.80;1.42;;;17.60;99.90;;;;;;4967325;28;20494;-78
2022/05/26 10:07:16;;;;;;;2.75;0.77;;;17.70;99.90;;;;;;4965072;28;20046;-78
2022/05/26 10:10:01;;;;;;;4.95;1.58;;;17.70;99.90;;;;;;4983690;28;21576;-77
2022/05/26 10:12:39;;;;;;;3.47;0.90;;;17.60;99.90;;;;;;4967416;28;20049;-77
2022/05/26 10:15:20;;;;;;;4.60;1.08;;;17.60;99.90;;;;;;4985601;28;20054;-76
2022/05/26 10:18:07;;;;;;;2.75;1.30;;;17.90;99.90;;;;;;4984295;28;20046;-77
2022/05/26 10:20:59;;;;;;;2.38;1.17;;;18.00;99.90;;;;;;4966670;28;20128;-76
2022/05/26 10:23:54;;;;;;;5.80;2.22;;;18.30;99.90;;;;;;4985553;28;20048;-77
2022/05/26 10:26:48;;;;;;;5.65;1.67;;;18.50;99.10;;;;;;4983491;28;20298;-77
2022/05/26 10:29:26;;;;;;;4.10;1.35;;;18.50;98.20;;;;;;4967027;28;20495;-78
2022/05/26 10:32:12;;;;;;;2.97;1.25;;;18.40;98.60;;;;;;4980160;28;20057;-77
2022/05/26 10:34:44;;;;;;;4.57;1.73;;;18.20;98.50;;;;;;4966107;28;20057;-77
2022/05/26 10:37:42;;;;;;;3.83;1.40;;;18.00;97.90;;;;;;4981348;28;20084;-76
2022/05/26 10:40:31;;;;;;;4.68;1.80;;;17.70;99.10;;;;;;4966431;28;20038;-77
2022/05/26 10:43:04;;;;;;;5.18;1.17;;;17.60;99.90;;;;;;4982138;28;20046;-77
2022/05/26 10:45:41;;;;;;;3.72;1.40;;;17.50;99.90;;;;;;4968717;28;20046;-77
2022/05/26 10:48:15;;;;;;;4.05;1.63;;;17.50;99.90;;;;;;4982050;28;20041;-77
2022/05/26 10:51:05;;;;;;;3.95;1.38;;;17.30;99.60;;;;;;4979615;28;20554;-77
2022/05/26 10:53:31;;;;;;;2.22;1.10;;;17.30;99.80;;;;;;4982814;28;20529;-78
2022/05/26 10:56:23;;;;;;;4.90;1.48;;;17.60;99.00;;;;;;4966481;28;20192;-78
2022/05/26 10:58:54;;;;;;;1.17;1.05;;;17.80;99.70;;;;;;4998233;28;20041;-78
2022/05/26 11:01:31;;;;;;;3.77;1.10;;;17.80;99.40;;;;;;4981229;28;20421;-78
2022/05/26 11:04:29;;;;;;;1.63;1.20;;;17.80;99.40;;;;;;4966918;28;20068;-76
2022/05/26 11:06:59;;;;;;;4.65;1.65;;;17.90;99.70;;;;;;4949984;28;20125;-77
2022/05/26 11:09:30;;;;;;;7.18;2.35;;;17.90;99.80;;;;;;4970558;28;20038;-77
2022/05/26 11:12:00;;;;;;;5.03;1.52;;;17.80;99.80;;;;;;4984430;28;20100;-77
2022/05/26 11:17:46;;;;;;;5.13;1.70;;;17.60;99.90;;;;;;4980071;28;20069;-78
2022/05/26 11:20:21;;;;;;;4.72;1.80;;;17.40;99.90;;;;;;4966137;28;20527;-78
2022/05/26 11:22:48;;;;;;;3.88;1.90;;;17.30;99.90;;;;;;4983025;28;20056;-78
2022/05/26 11:25:16;;;;;;;2.42;1.50;;;17.20;99.90;;;;;;4965969;28;20042;-78
2022/05/26 11:27:45;;;;;;;4.80;2.08;;;17.10;99.90;;;;;;4982500;28;20046;-78
2022/05/26 11:36:09;;;;;;;7.40;2.10;;;17.80;99.90;;;;;;4967252;28;20046;-78
2022/05/26 11:38:43;;;;;;;3.38;1.50;;;18.10;99.90;;;;;;4981438;28;20604;-78
2022/05/26 11:41:24;;;;;;;6.38;2.33;;;18.20;99.90;;;;;;4978903;28;20144;-78
2022/05/26 11:44:08;;;;;;;6.55;2.70;;;18.20;99.90;;;;;;4964780;28;20144;-79
2022/05/26 11:46:46;;;;;;;6.45;2.35;;;18.20;99.90;;;;;;4993317;28;20054;-78
2022/05/26 11:49:40;;;;;;;5.40;2.53;;;18.30;99.90;;;;;;4982556;28;20056;-77
2022/05/26 11:52:39;;;;;;;14.30;2.80;;;18.40;99.90;;;;;;4981435;28;20045;-77
2022/05/26 11:55:19;;;;;;;2.53;1.23;;;18.40;99.90;;;;;;4925720;28;20054;-77
2022/05/26 11:57:44;;;;;;;5.60;1.50;;;18.30;99.90;;;;;;4965149;28;20046;-77
2022/05/26 12:00:40;;;;;;;5.63;1.60;;;18.20;99.90;;;;;;4963940;28;20034;-77
2022/05/26 12:03:22;;;;;;;5.57;1.70;;;18.20;99.30;;;;;;4969307;28;20073;-76
2022/05/26 12:05:55;;;;;;;4.50;1.77;;;18.10;98.20;;;;;;4987010;28;20037;-75
2022/05/26 12:08:44;;;;;;;6.13;2.15;;;18.00;98.70;;;;;;4988186;28;20042;-76
2022/05/26 12:11:12;;;;;;;3.88;1.38;;;17.90;99.10;;;;;;4969010;28;20108;-75
2022/05/26 12:13:41;;;;;;;3.65;1.30;;;17.90;99.90;;;;;;4957394;28;20043;-75
2022/05/26 12:16:19;;;;;;;3.15;1.40;;;17.90;99.90;;;;;;4996085;28;20056;-76
2022/05/26 12:19:19;;;;;;;2.97;1.20;;;18.10;99.50;;;;;;4982519;28;20048;-75
2022/05/26 12:21:48;;;;;;;3.90;1.65;;;18.20;99.70;;;;;;4969787;28;20042;-75
2022/05/26 12:24:32;;;;;;;3.78;1.00;;;18.40;99.50;;;;;;4982670;28;20038;-75
2022/05/26 12:26:59;;;;;;;4.40;1.13;;;18.70;97.60;;;;;;5000335;28;20491;-74
2022/05/26 12:30:01;;;;;;;3.03;1.20;;;18.80;98.30;;;;;;4985194;28;20046;-75
2022/05/26 12:32:39;;;;;;;4.70;1.45;;;19.00;96.90;;;;;;4982855;28;20053;-76
2022/05/26 12:35:30;;;;;;;3.40;1.05;;;19.10;97.20;;;;;;4985117;28;20052;-76
2022/05/26 12:37:56;;;;;;;3.35;1.38;;;19.30;97.40;;;;;;4987267;28;20419;-77
2022/05/26 12:40:42;;;;;;;5.13;1.20;;;19.20;97.30;;;;;;4983819;28;20040;-75
2022/05/26 12:43:21;;;;;;;3.63;1.30;;;19.20;96.60;;;;;;4986392;28;20534;-75
2022/05/26 12:46:16;;;;;;;3.58;1.30;;;19.30;96.80;;;;;;4978613;28;20084;-75
2022/05/26 12:49:01;;;;;;;4.97;1.17;;;19.20;95.70;;;;;;4915130;28;20051;-75
2022/05/26 12:51:36;;;;;;;3.10;1.50;;;19.30;96.00;;;;;;4974384;28;20029;-75
2022/05/26 12:54:06;;;;;;;6.78;1.48;;;19.20;95.90;;;;;;4990147;28;20049;-76
2022/05/26 12:56:54;;;;;;;6.63;1.80;;;19.10;96.40;;;;;;4992623;28;20135;-76
2022/05/26 12:59:26;;;;;;;4.47;1.40;;;19.10;96.30;;;;;;4976379;28;20037;-76
2022/05/26 13:01:52;;;;;;;4.97;1.73;;;19.00;96.70;;;;;;4977547;28;20049;-76
2022/05/26 13:04:26;;;;;;;6.32;1.67;;;19.00;97.20;;;;;;4973120;28;20105;-77
2022/05/26 13:06:54;;;;;;;3.47;1.75;;;18.80;96.40;;;;;;4988002;28;20037;-75
2022/05/26 13:09:26;;;;;;;5.68;1.90;;;18.80;97.40;;;;;;4990415;28;20378;-74
2022/05/26 13:12:04;;;;;;;3.85;1.50;;;18.80;96.30;;;;;;4987872;28;20490;-75
2022/05/26 13:14:47;;;;;;;4.90;1.85;;;18.90;96.40;;;;;;4979480;28;20045;-76
2022/05/26 13:17:22;;;;;;;4.88;1.75;;;19.20;96.40;;;;;;4980424;28;20130;-76
2022/05/26 13:20:00;;;;;;;5.25;1.88;;;19.40;96.50;;;;;;4991902;28;20041;-75
2022/05/26 13:22:31;;;;;;;4.95;1.60;;;19.50;96.30;;;;;;4992074;28;20034;-75
2022/05/26 13:25:23;;;;;;;3.05;1.35;;;19.50;96.20;;;;;;4984893;28;20037;-75
2022/05/26 13:27:52;;;;;;;3.75;1.67;;;19.50;96.00;;;;;;4989994;28;20126;-75
2022/05/26 13:33:19;;;;;;;9.65;1.63;;;19.30;95.70;;;;;;4988037;28;20571;-74
2022/05/26 13:35:55;;;;;;;5.18;1.65;;;19.20;95.40;;;;;;4976414;28;20516;-74
2022/05/26 13:38:32;;;;;;;4.47;1.30;;;19.10;95.80;;;;;;4991757;28;20104;-75
2022/05/26 13:40:59;;;;;;;6.93;1.75;;;19.00;95.90;;;;;;4987824;28;20407;-74
2022/05/26 13:43:25;;;;;;;5.60;1.50;;;18.90;96.40;;;;;;4984730;28;20034;-74
2022/05/26 13:45:52;;;;;;;7.07;1.88;;;18.80;96.70;;;;;;5005181;28;20022;-75
2022/05/26 13:48:34;;;;;;;4.47;2.00;;;18.70;96.70;;;;;;4976597;28;20064;-77
2022/05/26 13:51:23;;;;;;;6.20;1.50;;;18.60;96.90;;;;;;4987704;28;20045;-75